Date,TemperatureHighF,TemperatureAvgF,TemperatureLowF,DewpointHighF,DewpointAvgF,DewpointLowF,HumidityHigh,HumidityAvg,HumidityLow,PressureMaxIn,PressureMinIn,WindSpeedMaxMPH,WindSpeedAvgMPH,GustSpeedMaxMPH,PrecipitationSumIn
2013-1-1,16.5,4.9,-5.5,4.6,-3.9,-10.9,83,68,47,30.49,30.22,0,0,2,0.00
2013-1-2,19.7,8.3,0.4,-1.5,-5.4,-9.0,68,54,37,30.54,30.39,1,0,5,0.00
2013-1-3,20.9,7.4,-2.4,-3.2,-7.8,-11.0,71,51,32,30.63,30.53,1,0,3,0.00
2013-1-4,27.0,16.3,5.9,5.5,-1.7,-8.7,58,45,32,30.58,30.25,1,0,2,0.01
2013-1-5,38.3,24.9,14.8,6.2,-2.2,-7.3,41,31,20,30.35,30.24,4,0,6,0.00
2013-1-6,39.1,22.7,6.1,4.9,-3.4,-11.1,48,32,21,30.36,30.12,1,0,7,0.01
2013-1-7,31.9,22.1,10.1,5.3,-0.9,-7.0,55,37,24,30.12,29.99,1,0,5,0.00
2013-1-8,36.8,27.5,19.7,13.3,6.6,-7.2,63,42,23,30.29,29.97,4,0,5,0.00
2013-1-9,40.3,24.8,10.8,13.5,7.5,2.4,77,49,30,30.45,30.17,3,0,6,0.00
2013-1-10,36.8,24.1,12.4,13.7,5.4,1.4,66,46,25,30.17,29.55,5,1,7,0.00
2013-1-11,24.1,13.3,-0.2,17.1,2.4,-11.5,85,63,31,29.88,29.23,5,2,13,0.00
2013-1-12,11.6,1.3,-7.7,-7.4,-12.7,-17.5,69,52,32,30.21,29.88,2,0,4,0.00
2013-1-13,7.9,-0.9,-9.5,-3.6,-10.9,-17.3,77,62,45,30.35,30.21,2,0,7,0.00
2013-1-14,6.5,-3.4,-11.5,-3.7,-10.7,-17.9,79,70,57,30.46,30.33,1,0,1,0.00
2013-1-15,19.7,7.2,-8.9,7.6,-4.3,-18.5,69,59,41,30.58,30.44,6,1,10,0.00
2013-1-16,35.4,23.0,12.9,16.2,11.1,4.2,74,61,42,30.56,30.37,2,0,5,0.02
2013-1-17,34.1,22.5,9.9,15.8,11.6,5.8,88,64,46,30.57,30.40,2,0,2,0.00
2013-1-18,41.6,29.6,17.4,7.2,0.0,-5.1,53,29,17,30.40,30.15,6,2,10,0.00
2013-1-19,43.4,31.1,23.2,11.4,2.0,-7.2,38,29,18,30.29,30.15,5,1,12,0.00
2013-1-20,41.0,31.5,25.8,5.9,-2.2,-10.1,40,24,15,30.20,30.07,4,1,8,0.00
2013-1-21,42.7,31.1,19.8,12.7,3.4,-9.6,45,31,18,30.17,30.09,7,2,19,0.00
2013-1-22,48.7,34.3,23.9,4.0,-8.6,-20.0,25,16,8,30.21,30.13,8,1,12,0.00
2013-1-23,53.4,40.6,28.8,1.0,-8.8,-18.0,19,12,7,30.18,30.03,8,1,15,0.00
2013-1-24,48.5,37.9,30.6,23.0,10.8,-5.0,70,37,17,30.02,29.82,14,1,20,0.00
2013-1-25,43.9,34.6,26.9,26.0,23.6,20.0,78,65,48,30.06,29.97,10,1,17,0.00
2013-1-26,44.2,33.3,28.4,31.0,24.8,18.0,92,72,51,29.99,29.61,8,0,14,0.00
2013-1-27,40.7,33.9,28.8,28.0,22.6,16.0,88,65,38,29.69,29.58,10,2,22,0.14
2013-1-28,34.3,26.6,17.4,27.0,19.3,9.0,88,74,58,29.62,29.42,10,1,22,0.09
2013-1-29,16.8,10.4,2.1,10.0,-2.1,-10.0,83,59,32,30.06,29.53,16,1,16,0.00
2013-1-30,24.2,20.3,13.1,12.0,6.5,-2.0,73,56,44,30.13,29.96,13,4,26,0.01
2013-1-31,34.6,31.1,27.1,12.0,8.9,7.0,49,40,34,30.19,30.05,11,3,22,0.00
2013-2-1,36.1,33.2,28.9,13.0,10.9,8.0,47,40,33,30.00,29.92,8,2,19,0.00
2013-2-2,43.6,35.1,26.2,6.0,2.7,-2.0,41,26,16,30.17,30.06,6,1,19,0.00
2013-2-3,40.0,31.7,23.6,7.0,-0.4,-8.0,41,26,15,30.13,29.86,5,1,13,0.00
2013-2-4,42.7,29.3,16.6,10.0,1.1,-6.0,47,31,20,29.99,29.89,9,1,20,0.00
2013-2-5,47.4,32.9,17.1,14.0,10.5,5.0,64,41,24,30.03,29.82,6,0,12,0.00
2013-2-6,41.6,32.3,21.6,19.0,12.7,9.0,73,46,29,29.89,29.69,7,1,15,0.00
2013-2-7,40.1,25.3,13.4,14.0,5.6,-7.0,77,49,14,30.13,29.90,6,0,11,0.00
2013-2-8,37.9,26.9,14.2,20.0,12.3,3.0,74,56,36,30.10,29.68,17,2,25,0.00
2013-2-9,32.4,23.2,16.1,18.0,10.4,0.0,83,59,38,29.67,29.36,13,1,21,0.01
2013-2-10,23.2,16.3,11.0,10.0,2.0,-5.0,83,55,35,30.00,29.53,8,1,17,0.00
2013-2-11,21.7,10.5,5.6,11.0,3.8,-2.0,82,74,61,30.22,30.01,5,0,9,0.01
2013-2-12,25.9,12.6,-1.1,4.0,-1.5,-7.0,79,56,31,30.32,30.22,6,0,7,0.00
2013-2-13,32.1,21.2,10.6,11.0,5.3,1.0,67,52,37,30.29,30.09,11,1,22,0.01
2013-2-14,31.1,22.2,15.4,10.0,4.5,0.0,64,47,31,30.21,30.05,9,2,16,0.00
2013-2-15,26.1,19.1,11.4,7.0,2.9,-1.0,72,50,33,30.43,30.21,17,2,21,0.00
2013-2-16,41.9,29.9,18.7,9.0,5.7,2.0,56,37,23,30.41,30.03,15,2,23,0.00
2013-2-17,40.2,30.4,20.9,14.0,-1.6,-11.0,72,28,12,30.02,29.56,8,1,19,0.00
2013-2-18,29.0,19.2,8.4,13.0,-2.4,-10.0,81,42,18,30.15,29.55,8,1,17,0.01
2013-2-19,38.4,20.7,3.5,4.0,-4.6,-13.0,50,35,13,30.18,29.81,10,0,13,0.00
2013-2-20,31.6,21.9,14.5,20.0,9.9,1.0,87,62,42,29.80,29.46,3,0,9,0.00
2013-2-21,26.9,18.1,12.2,18.0,11.9,5.0,86,77,63,29.88,29.53,4,0,9,0.12
2013-2-22,25.7,14.1,5.8,12.0,4.7,-3.0,83,67,46,30.07,29.87,3,0,7,0.05
2013-2-23,33.4,20.3,7.3,19.0,7.8,-5.0,82,60,41,30.06,29.68,13,1,19,0.01
2013-2-24,19.1,14.2,3.9,14.0,9.2,0.0,86,80,69,30.14,29.61,6,1,13,0.00
2013-2-25,29.6,15.0,0.9,8.0,1.4,-4.0,85,58,31,30.29,30.02,3,0,7,0.11
2013-2-26,21.4,15.6,6.2,12.0,3.8,-4.0,73,60,48,30.21,29.79,6,0,16,0.00
2013-2-27,23.1,12.2,2.7,3.0,-4.4,-9.0,66,49,33,30.45,30.21,5,0,9,0.00
2013-2-28,28.2,16.8,4.3,7.0,-1.0,-10.0,62,47,27,30.49,30.38,8,1,20,0.02
2013-3-1,34.4,24.8,15.0,18.0,11.1,5.0,68,57,42,30.44,30.36,11,2,18,0.04
2013-3-2,43.3,31.8,19.7,20.0,14.6,11.0,74,51,34,30.43,30.09,3,0,8,0.04
2013-3-3,45.3,36.4,27.8,21.0,15.6,8.0,71,44,24,30.07,29.57,8,1,21,0.01
2013-3-4,39.3,26.0,10.1,26.0,15.5,-4.0,89,66,40,30.09,29.55,14,1,20,0.00
2013-3-5,45.4,28.6,9.2,5.0,-4.3,-14.0,56,26,13,30.33,30.09,4,0,17,0.00
2013-3-6,48.9,35.8,23.3,18.0,8.9,1.0,45,33,24,30.12,29.79,12,1,16,0.00
2013-3-7,49.8,39.0,31.2,13.0,9.1,3.0,41,30,15,29.83,29.74,6,1,16,0.00
2013-3-8,45.5,32.2,23.5,27.0,16.7,7.0,90,56,29,29.79,29.48,11,1,19,0.00
2013-3-9,29.2,23.1,11.2,24.0,17.6,3.0,87,79,67,29.99,29.42,5,0,11,0.11
2013-3-10,31.8,20.1,8.0,16.0,7.0,-1.0,71,58,44,30.26,29.99,12,2,18,0.02
2013-3-11,42.0,31.3,21.7,19.0,11.6,6.0,57,45,33,30.23,29.93,12,2,23,0.00
2013-3-12,44.9,33.4,24.7,19.0,15.1,11.0,65,48,31,30.16,29.97,10,2,24,0.00
2013-3-13,49.3,37.3,27.9,20.0,16.1,12.0,58,43,30,30.21,30.12,13,2,19,0.00
2013-3-14,54.9,42.9,31.8,18.0,12.9,6.0,50,32,14,30.21,30.05,9,1,22,0.00
2013-3-15,56.7,45.2,35.6,20.0,14.6,12.0,41,30,18,30.05,29.73,12,1,20,0.00
2013-3-16,43.0,35.2,28.1,32.0,23.5,13.0,89,64,34,29.73,29.60,17,1,19,0.03
2013-3-17,39.9,29.8,23.4,27.0,21.1,14.0,86,71,40,29.73,29.49,11,2,21,0.03
2013-3-18,32.9,25.8,17.7,15.0,10.1,6.0,68,53,36,29.98,29.73,12,2,23,0.02
2013-3-19,39.1,29.1,20.6,12.0,-1.1,-13.0,68,31,11,30.20,29.95,12,2,19,0.00
2013-3-20,45.9,31.7,18.2,20.0,6.4,-12.0,61,36,22,30.20,29.76,11,2,18,0.00
2013-3-21,39.2,30.8,23.6,29.0,18.1,4.0,86,61,39,29.75,29.44,11,1,18,0.04
2013-3-22,36.4,26.5,17.6,16.0,5.9,-3.0,84,44,21,29.70,29.55,11,1,22,0.00
2013-3-23,19.6,11.0,3.6,16.0,5.9,-2.0,84,80,71,30.26,29.63,6,1,12,0.00
2013-3-24,20.3,7.1,-3.4,4.0,-1.7,-9.0,82,68,46,30.42,30.26,11,1,20,0.01
2013-3-25,24.0,13.8,1.4,2.0,-5.7,-12.0,66,43,32,30.46,30.39,3,0,13,0.00
2013-3-26,44.6,30.3,12.3,19.0,9.9,-4.0,56,44,26,30.40,29.95,11,1,19,0.02
2013-3-27,48.9,36.8,26.6,21.0,15.5,9.0,71,45,23,29.96,29.86,6,1,14,0.00
2013-3-28,48.8,35.8,23.9,26.0,20.8,15.0,81,58,27,30.04,29.94,10,1,11,0.00
2013-3-29,49.2,37.8,26.2,27.0,21.9,18.0,79,55,30,30.07,29.96,9,1,18,0.00
2013-3-30,51.3,38.8,28.9,27.0,20.5,15.0,85,52,24,30.06,29.90,9,2,19,0.00
2013-3-31,55.6,39.0,23.1,25.0,13.8,3.0,87,45,13,29.99,29.87,7,1,13,0.00
2013-4-1,53.3,36.7,25.7,29.0,19.6,13.0,81,53,21,29.90,29.69,11,1,22,0.00
2013-4-2,41.7,30.0,26.7,28.0,25.2,22.0,91,83,57,29.98,29.78,8,0,13,0.00
2013-4-3,45.4,31.9,21.1,27.0,20.0,15.0,91,66,32,30.14,29.98,10,1,16,0.31
2013-4-4,54.2,41.0,28.2,23.0,18.2,14.0,63,42,23,30.13,29.91,8,1,14,0.00
2013-4-5,55.9,44.1,32.8,30.0,19.7,13.0,87,41,24,29.90,29.55,10,1,18,0.00
2013-4-6,51.0,39.6,28.8,29.0,18.7,11.0,85,47,20,29.75,29.63,14,2,24,0.00
2013-4-7,48.4,38.9,30.6,25.0,20.2,17.0,72,48,30,29.69,29.55,13,2,22,0.00
2013-4-8,52.6,38.4,27.1,32.0,22.8,13.0,89,59,22,29.60,29.23,18,2,28,0.00
2013-4-9,28.4,15.5,6.4,25.0,10.6,2.0,89,81,71,30.05,29.32,6,1,13,0.02
2013-4-10,33.5,17.2,1.0,20.0,7.4,-4.0,84,67,48,30.21,30.02,10,1,21,0.02
2013-4-11,41.3,32.1,20.0,23.0,15.9,5.0,66,52,36,30.03,29.75,11,2,21,0.00
2013-4-12,43.6,34.3,26.2,22.0,16.5,10.0,76,51,28,29.86,29.73,13,1,17,0.00
2013-4-13,51.0,38.1,24.5,30.0,18.2,12.0,85,49,25,29.83,29.27,25,4,32,0.00
2013-4-14,34.8,30.6,25.3,31.0,18.9,10.0,90,65,39,29.61,29.26,16,2,23,0.40
2013-4-15,45.4,29.6,20.5,31.0,22.3,13.0,85,75,51,29.75,29.50,15,2,27,0.02
2013-4-16,44.8,30.7,18.9,26.0,21.0,16.0,88,69,42,29.77,29.53,18,4,33,0.00
2013-4-17,34.4,22.4,8.3,25.0,17.9,4.0,90,83,61,29.97,29.54,12,2,21,0.03
2013-4-18,25.3,14.3,3.9,8.0,3.4,-1.0,83,64,42,30.41,29.96,9,1,17,0.18
2013-4-19,42.4,28.9,15.4,21.0,11.4,2.0,61,49,35,30.40,29.98,8,1,19,0.00
2013-4-20,38.1,31.8,24.7,27.0,20.4,15.0,79,64,44,29.98,29.82,8,0,10,0.01
2013-4-21,49.4,37.8,28.0,22.0,15.7,7.0,73,44,18,30.02,29.87,10,1,17,0.00
2013-4-22,49.4,36.6,17.7,30.0,21.6,14.0,86,58,28,29.86,29.65,21,2,23,0.00
2013-4-23,30.8,20.5,13.9,22.0,12.0,4.0,86,72,40,30.24,29.80,10,1,15,0.15
2013-4-24,41.1,27.8,13.4,16.0,7.2,0.0,65,44,23,30.26,30.19,9,1,18,0.00
2013-4-25,54.5,38.0,20.2,23.0,17.4,12.0,77,47,21,30.21,29.84,10,1,18,0.00
2013-4-26,52.4,40.8,29.0,25.0,16.6,7.0,66,41,16,30.10,29.88,15,1,24,0.00
2013-4-27,57.3,43.2,27.9,27.0,16.9,7.0,81,42,15,30.10,29.95,10,1,16,0.00
2013-4-28,62.1,50.0,35.8,19.0,15.9,11.0,40,27,16,29.96,29.66,10,1,16,0.00
2013-4-29,64.0,51.8,37.5,24.0,19.0,12.0,58,30,17,29.67,29.41,12,2,26,0.00
2013-4-30,65.0,53.4,41.3,31.0,18.8,14.0,66,27,16,29.41,29.30,18,3,25,0.00
2013-5-1,40.6,27.3,15.4,31.0,23.1,12.0,90,84,67,30.41,29.36,9,1,18,0.10
2013-5-2,31.6,22.9,11.2,17.0,12.4,8.0,86,66,48,30.73,30.42,3,0,8,0.26
2013-5-3,50.3,35.7,21.2,21.0,14.6,8.0,64,45,23,30.55,29.99,8,1,17,0.01
2013-5-4,50.9,36.2,25.7,31.0,21.7,16.0,89,58,29,30.06,29.88,8,1,23,0.00
2013-5-5,52.0,36.9,24.7,29.0,22.2,18.0,80,58,28,30.07,29.95,7,1,17,0.02
2013-5-6,46.0,35.1,29.7,35.0,28.4,21.0,93,77,59,29.99,29.80,5,0,8,0.10
2013-5-7,49.9,38.3,30.4,36.0,30.8,26.0,93,76,40,29.92,29.84,6,0,14,0.45
2013-5-8,40.7,34.8,31.3,34.0,30.9,29.0,92,86,72,29.95,29.82,3,0,12,0.54
2013-5-9,39.5,32.9,29.1,34.0,29.9,27.0,93,89,78,30.18,29.94,4,0,8,0.54
2013-5-10,45.8,34.2,20.0,34.0,26.8,17.0,93,76,51,30.30,30.16,6,1,15,0.00
2013-5-11,54.5,42.5,30.7,34.0,27.8,23.0,87,59,30,30.31,30.11,11,1,20,0.00
2013-5-12,61.8,49.7,36.1,32.0,28.0,25.0,80,46,26,30.12,29.95,9,2,15,0.00
2013-5-13,67.2,53.2,43.3,37.0,30.2,25.0,55,43,23,29.99,29.83,8,1,19,0.00
2013-5-14,69.0,50.3,39.7,43.0,35.1,28.0,81,59,23,29.83,29.70,19,1,19,0.07
2013-5-15,63.4,47.8,39.9,43.0,36.7,31.0,89,69,30,29.76,29.69,9,1,18,0.04
2013-5-16,66.5,51.8,34.9,38.0,30.5,24.0,92,51,21,29.72,29.62,7,1,15,0.00
2013-5-17,68.4,54.7,39.7,34.0,20.8,9.0,62,31,12,29.63,29.50,12,2,20,0.00
2013-5-18,58.8,48.0,36.7,32.0,21.8,14.0,61,37,23,29.59,29.49,7,1,17,0.00
2013-5-19,51.5,41.6,33.7,28.0,22.5,18.0,69,48,27,29.71,29.58,8,2,19,0.00
2013-5-20,53.4,41.5,32.6,29.0,24.0,21.0,66,51,32,29.86,29.69,11,2,23,0.00
2013-5-21,57.3,44.7,32.4,25.0,22.1,18.0,63,43,22,29.86,29.72,10,2,22,0.00
2013-5-22,67.6,48.7,32.1,36.0,26.6,20.0,82,47,17,29.75,29.60,11,1,23,0.00
2013-5-23,68.5,50.1,38.1,38.0,33.9,18.0,87,60,16,29.76,29.62,17,3,28,0.00
2013-5-24,70.9,54.5,37.1,39.0,23.4,8.0,91,42,9,29.75,29.68,12,2,21,0.00
2013-5-25,70.2,57.5,38.3,24.0,14.6,8.0,45,21,9,29.72,29.58,11,1,20,0.00
2013-5-26,71.6,58.9,42.5,24.0,16.6,9.0,35,21,9,29.62,29.45,12,1,18,0.00
2013-5-27,67.3,56.3,45.0,18.0,13.8,9.0,29,19,11,29.54,29.39,11,1,21,0.00
2013-5-28,65.9,53.2,36.1,23.0,16.8,7.0,52,26,12,29.49,29.30,9,2,27,0.00
2013-5-29,56.2,46.5,35.2,29.0,22.3,18.0,66,40,24,29.49,29.27,9,1,16,0.00
2013-5-30,55.3,45.5,33.4,23.0,18.1,12.0,64,37,18,29.70,29.48,20,4,28,0.00
2013-5-31,55.7,46.1,37.9,24.0,14.4,6.0,53,31,14,29.86,29.66,12,3,30,0.00
2013-6-1,63.4,48.1,33.4,28.0,19.4,12.0,64,34,17,29.95,29.85,11,2,19,0.00
2013-6-2,70.9,53.7,32.1,31.0,22.8,13.0,81,38,11,29.93,29.63,9,1,16,0.00
2013-6-3,72.1,60.2,47.6,29.0,23.9,18.0,40,26,13,29.62,29.43,10,2,24,0.00
2013-6-4,70.6,57.3,45.6,37.0,29.5,25.0,59,37,19,29.68,29.54,12,2,24,0.00
2013-6-5,72.2,50.4,38.4,44.0,36.9,17.0,94,68,12,29.81,29.64,9,1,19,0.00
2013-6-6,68.0,52.0,36.4,39.0,33.3,23.0,92,57,19,29.86,29.73,13,1,21,0.00
2013-6-7,64.7,50.9,38.6,41.0,35.9,29.0,90,60,31,29.82,29.64,7,1,15,0.02
2013-6-8,72.4,60.8,48.4,36.0,29.0,25.0,62,32,17,29.64,29.49,12,3,24,0.00
2013-6-9,77.7,62.0,41.5,36.0,26.8,19.0,72,32,11,29.70,29.58,11,2,21,0.00
2013-6-10,83.0,66.8,46.2,35.0,26.7,18.0,48,25,9,29.67,29.50,8,1,33,0.00
2013-6-11,79.8,67.1,51.9,29.0,18.7,6.0,37,18,6,29.59,29.43,17,3,23,0.00
2013-6-12,79.1,64.4,49.1,27.0,21.8,17.0,33,21,11,29.71,29.59,19,2,25,0.00
2013-6-13,78.1,63.1,49.0,44.0,27.2,17.0,71,29,13,29.68,29.52,16,2,30,0.02
2013-6-14,74.9,61.8,48.4,39.0,31.6,14.0,60,37,11,29.63,29.49,14,1,22,0.00
2013-6-15,75.3,59.6,41.4,38.0,28.5,17.0,77,37,12,29.73,29.58,9,1,23,0.00
2013-6-16,68.6,55.2,45.0,43.0,33.2,27.0,73,46,23,29.83,29.66,10,1,20,0.08
2013-6-17,72.9,53.4,38.3,42.0,35.4,25.0,86,57,17,29.90,29.79,8,1,16,0.02
2013-6-18,72.3,56.1,39.4,43.0,33.9,26.0,89,50,20,29.87,29.62,22,2,22,0.00
2013-6-19,78.2,60.9,41.1,41.0,23.0,5.0,80,35,6,29.64,29.43,12,2,25,0.00
2013-6-20,77.3,65.1,50.1,19.0,12.3,6.0,20,13,7,29.50,29.40,12,1,20,0.00
2013-6-21,77.1,64.0,47.9,23.0,16.9,11.0,30,17,8,29.52,29.42,10,2,19,0.00
2013-6-22,75.0,63.8,52.2,27.0,16.7,12.0,27,17,9,29.51,29.37,8,1,20,0.00
2013-6-23,75.3,59.4,40.5,37.0,23.5,15.0,47,27,12,29.59,29.45,20,2,39,0.00
2013-6-24,72.8,59.5,42.1,42.0,23.5,12.0,65,32,10,29.57,29.49,9,1,27,0.00
2013-6-25,76.1,64.5,53.6,29.0,22.8,18.0,34,21,15,29.65,29.52,7,2,17,0.00
2013-6-26,81.5,67.1,47.3,34.0,28.4,22.0,47,26,12,29.73,29.64,7,1,17,0.00
2013-6-27,84.6,69.6,52.9,42.0,30.3,23.0,51,26,11,29.78,29.69,10,1,23,0.00
2013-6-28,84.4,66.3,50.2,44.0,37.5,24.0,67,40,12,29.80,29.68,11,1,24,0.00
2013-6-29,78.1,56.8,47.1,46.0,42.7,37.0,86,62,23,29.87,29.72,10,1,17,0.01
2013-6-30,77.2,56.6,46.3,52.0,43.4,33.0,86,66,20,29.90,29.75,8,1,19,0.35
2013-7-1,70.5,54.8,43.3,48.0,42.5,35.0,94,68,29,29.94,29.87,14,1,17,0.06
2013-7-2,71.5,55.7,40.5,48.0,41.6,33.0,94,65,26,29.95,29.79,11,1,21,0.03
2013-7-3,72.7,53.9,42.1,47.0,40.8,30.0,92,67,23,29.82,29.67,8,1,24,0.12
2013-7-4,74.6,60.1,46.8,45.0,40.0,35.0,80,51,24,29.74,29.61,8,1,17,0.02
2013-7-5,75.2,61.7,49.0,49.0,43.0,39.0,79,54,29,29.61,29.45,8,1,16,0.00
2013-7-6,73.9,59.9,50.8,48.0,44.2,39.0,83,59,29,29.66,29.55,7,1,27,0.01
2013-7-7,74.9,60.8,49.9,53.0,45.3,41.0,86,60,29,29.74,29.63,9,1,17,0.03
2013-7-8,76.5,60.3,46.6,52.0,43.5,31.0,95,61,23,29.81,29.73,7,1,16,0.26
2013-7-9,77.3,64.0,49.7,46.0,37.9,32.0,62,40,22,29.84,29.73,8,1,17,0.00
2013-7-10,79.1,63.4,51.3,47.0,42.9,38.0,74,51,24,29.82,29.65,8,1,18,0.00
2013-7-11,81.1,63.2,47.8,52.0,43.8,32.0,90,56,17,29.75,29.53,10,1,25,0.10
2013-7-12,79.1,63.1,54.8,53.0,45.5,42.0,89,56,27,29.63,29.50,7,1,17,0.08
2013-7-13,77.1,61.4,53.1,53.0,49.2,44.0,92,67,32,29.76,29.63,5,0,16,0.06
2013-7-14,71.9,57.7,48.1,53.0,48.7,43.0,94,75,36,29.83,29.72,13,1,17,0.82
2013-7-15,65.3,52.4,47.3,54.0,48.9,46.0,95,88,63,29.89,29.78,8,1,17,0.03
2013-7-16,69.2,55.1,43.6,48.0,44.1,41.0,94,69,41,29.95,29.84,9,1,21,0.00
2013-7-17,74.7,59.5,44.0,49.0,44.4,40.0,93,61,33,29.95,29.79,11,1,22,0.00
2013-7-18,78.9,59.9,50.0,49.0,45.2,40.0,91,62,26,29.85,29.66,8,1,24,0.10
2013-7-19,70.9,54.8,47.7,53.0,48.3,45.0,91,80,48,29.87,29.78,9,1,14,0.82
2013-7-20,77.5,60.9,46.4,53.0,45.6,32.0,94,64,19,29.84,29.58,6,0,15,0.00
2013-7-21,78.8,63.6,47.2,50.0,40.2,22.0,91,51,12,29.63,29.54,6,1,18,0.00
2013-7-22,78.4,64.0,50.5,44.0,38.8,33.0,67,43,20,29.67,29.58,10,1,18,0.00
2013-7-23,80.6,63.6,47.9,43.0,34.7,21.0,63,39,12,29.73,29.64,10,0,23,0.00
2013-7-24,71.3,58.6,50.4,51.0,46.1,43.0,86,64,39,29.79,29.65,7,0,28,0.11
2013-7-25,71.5,56.9,47.0,48.0,45.0,39.0,90,68,34,29.92,29.75,9,1,22,0.02
2013-7-26,72.2,56.5,42.3,49.0,43.9,37.0,94,67,29,29.97,29.88,9,1,17,0.00
2013-7-27,73.1,57.5,48.1,48.0,44.4,37.0,91,65,30,29.91,29.64,8,1,18,0.10
2013-7-28,64.2,55.3,49.1,51.0,47.7,45.0,92,77,52,29.70,29.60,9,0,13,0.12
2013-7-29,71.1,57.4,48.4,48.0,44.9,39.0,86,66,34,29.83,29.65,9,1,18,0.01
2013-7-30,72.9,58.6,44.3,45.0,39.0,35.0,84,52,27,29.96,29.83,9,1,18,0.00
2013-7-31,74.6,61.7,45.5,47.0,38.0,32.0,78,46,22,29.98,29.81,8,1,14,0.00
2013-8-1,70.9,58.6,48.6,49.0,44.2,40.0,86,61,42,29.82,29.71,6,1,15,0.00
2013-8-2,74.7,61.9,52.2,47.0,41.9,34.0,70,51,27,29.73,29.64,9,2,16,0.02
2013-8-3,77.1,60.6,48.9,50.0,42.9,33.0,88,57,21,29.84,29.70,11,1,13,0.00
2013-8-4,75.0,58.2,46.6,50.0,45.5,37.0,95,68,27,29.86,29.75,9,1,15,0.02
2013-8-5,76.3,58.4,49.0,48.0,44.1,35.0,88,63,22,29.84,29.72,4,0,14,0.01
2013-8-6,72.6,56.8,47.5,49.0,43.1,33.0,91,66,24,29.78,29.69,7,1,11,0.18
2013-8-7,57.1,49.7,45.9,46.0,43.4,40.0,92,80,55,29.89,29.73,7,1,14,0.13
2013-8-8,66.0,50.0,44.4,45.0,41.1,34.0,92,74,31,29.95,29.79,6,1,13,0.38
2013-8-9,65.5,50.3,40.9,46.0,41.7,38.0,94,75,37,30.03,29.92,8,1,14,0.07
2013-8-10,70.5,55.1,40.3,46.0,38.9,32.0,94,60,27,30.02,29.89,10,1,20,0.00
2013-8-11,70.0,54.9,43.8,44.0,39.8,37.0,79,59,30,29.91,29.81,9,0,14,0.11
2013-8-12,71.4,53.3,42.4,45.0,41.1,37.0,90,66,30,29.93,29.85,6,0,16,0.01
2013-8-13,70.2,54.6,40.7,46.0,40.2,33.0,92,63,27,29.94,29.86,9,1,19,0.00
2013-8-14,71.2,55.0,40.1,44.0,34.4,23.0,90,53,17,29.94,29.84,12,2,23,0.00
2013-8-15,74.3,58.2,40.8,43.0,32.2,23.0,75,43,16,29.89,29.81,11,2,20,0.00
2013-8-16,77.0,59.8,43.5,43.0,34.2,25.0,78,44,15,29.87,29.81,11,1,22,0.00
2013-8-17,77.1,62.1,47.0,42.0,32.8,26.0,61,38,16,29.87,29.72,5,0,9,0.00
2013-8-18,79.9,60.2,48.0,44.0,39.0,34.0,69,48,20,29.83,29.69,12,1,18,0.00
2013-8-19,76.8,60.2,44.3,47.0,39.7,30.0,84,53,19,29.84,29.74,7,1,19,0.03
2013-8-20,80.0,61.9,46.0,48.0,39.4,32.0,84,50,18,29.80,29.68,9,1,18,0.00
2013-8-21,76.8,61.2,50.6,47.0,40.4,37.0,68,48,27,29.79,29.67,11,1,18,0.01
2013-8-22,75.7,60.2,49.5,53.0,44.6,41.0,91,60,30,29.83,29.69,8,1,17,0.23
2013-8-23,75.0,58.8,47.3,52.0,45.7,39.0,95,67,33,29.82,29.65,8,1,16,0.08
2013-8-24,70.8,59.8,50.9,46.0,42.5,39.0,73,55,33,29.79,29.68,5,0,15,0.00
2013-8-25,70.5,59.5,50.0,52.0,46.5,43.0,80,63,42,29.84,29.76,11,1,17,0.01
2013-8-26,76.1,62.8,51.5,49.0,46.4,43.0,80,58,33,29.85,29.70,11,1,13,0.00
2013-8-27,76.6,62.0,46.9,49.0,44.5,38.0,90,57,28,29.78,29.67,13,1,22,0.00
2013-8-28,78.0,62.6,48.5,46.0,41.9,33.0,79,51,20,29.79,29.68,12,1,18,0.00
2013-8-29,80.4,61.2,48.1,52.0,44.3,38.0,85,59,22,29.87,29.75,7,1,13,0.01
2013-8-30,74.2,61.5,51.6,50.0,45.2,39.0,84,59,29,29.87,29.78,7,1,12,0.00
2013-8-31,76.0,57.8,49.4,52.0,45.9,39.0,87,67,29,29.80,29.70,8,1,18,0.25
2013-9-1,69.3,56.5,50.0,52.0,48.3,46.0,94,76,46,29.85,29.76,16,1,23,0.55
2013-9-2,74.9,59.3,46.9,55.0,47.3,38.0,95,70,29,29.86,29.76,11,1,17,0.01
2013-9-3,75.6,60.8,51.5,51.0,46.1,40.0,88,62,29,29.83,29.72,6,1,14,0.04
2013-9-4,75.7,57.8,49.7,54.0,47.8,43.0,91,72,32,29.95,29.81,8,1,16,0.30
2013-9-5,78.5,62.4,48.5,52.0,42.6,34.0,87,54,20,29.96,29.80,8,1,18,0.00
2013-9-6,79.6,63.3,49.1,45.0,40.1,36.0,69,46,22,29.84,29.67,9,0,21,0.00
2013-9-7,78.6,61.6,49.4,45.0,40.5,36.0,72,49,25,29.76,29.64,9,1,22,0.02
2013-9-8,77.0,63.2,53.8,44.0,39.9,34.0,61,44,23,29.70,29.46,9,1,18,0.00
2013-9-9,72.4,59.4,45.4,49.0,42.7,37.0,90,57,29,29.60,29.46,11,1,18,0.00
2013-9-10,65.0,54.3,48.8,49.0,47.4,44.0,94,80,48,29.82,29.59,14,2,21,0.16
2013-9-11,61.0,52.4,49.2,52.0,48.8,47.0,94,88,66,29.89,29.79,8,0,13,0.09
2013-9-12,60.4,52.6,49.6,53.0,49.4,47.0,94,89,68,29.91,29.80,9,0,15,0.64
2013-9-13,58.7,52.0,47.2,49.0,46.3,42.0,95,82,62,29.80,29.64,7,1,13,0.78
2013-9-14,66.0,53.0,46.0,47.0,43.6,41.0,90,72,44,29.70,29.57,4,1,13,0.00
2013-9-15,56.9,47.5,43.1,47.0,43.5,40.0,94,86,65,29.99,29.69,6,0,10,0.56
2013-9-16,64.7,51.2,43.1,47.0,43.5,39.0,95,77,49,29.99,29.85,9,1,13,0.01
2013-9-17,67.4,54.8,42.5,45.0,41.5,38.0,90,64,34,29.86,29.59,7,1,12,0.00
2013-9-18,65.2,52.0,45.4,46.0,42.9,38.0,89,73,40,29.67,29.54,9,1,20,0.08
2013-9-19,64.2,49.9,38.1,42.0,37.5,26.0,93,67,27,29.85,29.66,9,1,11,0.00
2013-9-20,68.1,52.1,40.4,41.0,34.4,21.0,92,59,17,29.88,29.75,6,1,11,0.00
2013-9-21,68.7,54.1,38.9,39.0,35.4,31.0,85,53,25,29.79,29.57,8,1,13,0.00
2013-9-22,59.0,48.2,39.0,44.0,39.1,35.0,93,72,51,29.57,29.31,8,1,17,0.44
2013-9-23,48.7,42.4,37.4,36.0,28.2,23.0,90,60,37,29.98,29.32,24,4,29,0.03
2013-9-24,64.7,47.9,33.7,29.0,23.7,18.0,63,42,17,30.04,29.74,8,1,15,0.00
2013-9-25,64.8,53.4,41.5,31.0,27.0,23.0,55,38,22,29.73,29.32,18,4,36,0.00
2013-9-26,64.3,54.7,48.0,26.0,20.8,17.0,35,27,17,29.41,29.31,22,3,26,0.00
2013-9-27,50.4,41.9,29.0,39.0,28.9,18.0,86,62,36,29.80,29.32,9,1,23,0.12
2013-9-28,56.6,41.2,27.1,23.0,16.8,6.0,69,40,23,30.09,29.80,7,1,18,0.00
2013-9-29,62.2,48.8,37.7,23.0,18.2,14.0,50,31,19,30.05,29.76,9,1,14,0.00
2013-9-30,69.7,55.4,44.7,32.0,23.9,18.0,41,30,23,29.79,29.57,10,2,18,0.00
2013-10-1,68.4,52.0,34.9,32.0,26.5,21.0,64,39,20,29.76,29.61,18,2,25,0.00
2013-10-2,65.6,49.7,34.3,31.0,22.8,13.0,75,40,13,29.77,29.64,7,0,14,0.00
2013-10-3,63.1,51.0,42.3,25.0,22.5,18.0,46,34,23,29.63,29.33,16,3,22,0.00
2013-10-4,47.6,33.2,22.5,27.0,15.0,7.0,81,49,29,30.05,29.30,11,1,24,0.00
2013-10-5,47.1,32.7,21.7,12.0,4.8,-4.0,57,35,13,30.28,30.04,12,2,17,0.00
2013-10-6,60.4,42.6,25.7,23.0,13.7,0.0,49,32,19,30.29,30.13,10,1,14,0.00
2013-10-7,68.4,48.7,30.4,25.0,19.4,14.0,64,36,14,30.12,29.80,6,0,13,0.00
2013-10-8,63.6,51.2,41.2,25.0,20.7,16.0,48,32,16,29.80,29.46,14,1,18,0.00
2013-10-9,59.0,45.8,31.6,29.0,21.0,15.0,69,40,19,29.69,29.56,15,1,21,0.00
2013-10-10,47.8,39.8,31.6,33.0,27.2,20.0,85,62,37,29.68,29.31,9,2,27,0.04
2013-10-11,48.1,37.5,30.9,25.0,21.8,20.0,69,54,35,29.94,29.50,9,2,20,0.00
2013-10-12,50.8,37.1,27.1,28.0,22.7,19.0,81,59,31,30.02,29.93,12,1,15,0.00
2013-10-13,56.4,42.1,27.8,36.0,28.2,23.0,84,62,32,30.03,29.71,15,2,34,0.02
2013-10-14,45.4,36.7,28.3,31.0,23.2,19.0,83,59,39,29.98,29.59,10,2,19,0.02
2013-10-15,37.5,28.6,19.4,26.0,20.8,15.0,88,73,51,30.12,29.96,10,1,15,0.01
2013-10-16,42.0,30.8,21.8,22.0,16.8,8.0,88,60,33,30.09,30.00,13,1,17,0.01
2013-10-17,49.1,33.8,19.7,16.0,10.1,6.0,61,40,21,30.06,29.87,7,1,14,0.00
2013-10-18,37.7,29.2,22.6,20.0,11.4,2.0,87,51,24,30.16,29.85,9,1,18,0.00
2013-10-19,51.1,36.9,25.1,16.0,12.4,5.0,57,38,22,30.16,29.89,10,2,20,0.00
2013-10-20,51.0,38.4,28.1,25.0,15.8,11.0,84,42,26,29.91,29.70,11,1,16,0.00
2013-10-21,47.6,33.4,19.2,25.0,18.1,13.0,90,59,26,30.19,29.89,9,1,20,0.01
2013-10-22,57.2,40.3,25.9,23.0,18.9,16.0,70,45,23,30.20,30.04,3,0,11,0.00
2013-10-23,59.5,43.5,31.2,22.0,16.0,6.0,55,36,13,30.05,29.92,5,0,9,0.00
2013-10-24,59.0,43.0,27.8,24.0,18.6,15.0,66,41,18,30.06,29.96,8,1,14,0.00
2013-10-25,55.3,40.7,29.9,33.0,24.7,20.0,83,56,26,30.09,29.92,4,0,13,0.01
2013-10-26,54.9,41.2,28.3,28.0,23.4,18.0,82,53,25,30.18,30.06,4,0,9,0.00
2013-10-27,53.8,42.1,33.5,23.0,19.1,16.0,63,42,23,30.05,29.70,9,0,13,0.00
2013-10-28,51.7,39.7,27.7,27.0,20.1,15.0,69,48,26,29.74,29.61,17,3,25,0.00
2013-10-29,46.5,38.8,31.6,30.0,19.1,14.0,90,47,29,29.72,29.55,11,2,25,0.00
2013-10-30,39.4,29.9,22.5,27.0,13.6,11.0,89,52,36,29.80,29.60,9,1,15,0.02
2013-10-31,40.9,29.6,23.2,16.0,12.4,9.0,65,50,31,29.97,29.78,8,1,21,0.00
2013-11-1,40.8,31.3,23.2,20.0,14.0,7.0,83,51,30,30.23,29.93,15,2,21,0.00
2013-11-2,55.8,39.6,23.1,13.0,4.8,-4.0,53,27,9,30.22,29.76,9,1,15,0.00
2013-11-3,49.7,39.3,29.6,24.0,14.8,8.0,78,38,26,29.75,29.38,13,1,22,0.00
2013-11-4,42.5,30.7,24.1,21.0,15.1,9.0,86,56,27,29.78,29.58,11,1,17,0.00
2013-11-5,33.6,23.3,13.7,22.0,8.2,-10.0,90,57,25,30.22,29.72,7,1,17,0.01
2013-11-6,39.0,27.6,13.5,11.0,5.7,-11.0,57,40,28,30.43,30.22,12,2,22,0.00
2013-11-7,50.4,37.3,25.2,16.0,13.1,9.0,57,39,25,30.42,30.00,7,1,17,0.00
2013-11-8,52.9,41.6,34.4,14.0,11.4,7.0,42,30,20,29.99,29.72,17,2,21,0.00
2013-11-9,54.5,40.9,31.1,16.0,12.7,11.0,46,33,19,30.06,29.89,6,0,13,0.00
2013-11-10,54.4,40.9,29.6,15.0,12.2,9.0,50,33,18,30.13,30.02,6,0,12,0.00
2013-11-11,52.9,39.9,29.3,14.0,12.5,9.0,48,34,17,30.30,30.09,4,1,13,0.00
2013-11-12,51.4,34.8,19.0,19.0,12.4,-10.0,85,44,8,30.48,30.29,5,0,7,0.00
2013-11-13,51.4,39.9,27.5,13.0,9.5,3.0,39,30,17,30.38,29.90,9,1,11,0.00
2013-11-14,47.6,37.3,28.2,20.0,11.3,-1.0,67,38,16,29.89,29.66,8,1,13,0.00
2013-11-15,45.0,34.5,27.9,27.0,17.4,9.0,87,53,29,29.65,29.38,15,2,19,0.00
2013-11-16,37.7,29.8,24.7,25.0,19.1,13.0,89,67,38,29.49,29.29,17,1,35,0.03
2013-11-17,39.2,28.9,19.7,21.0,17.1,13.0,88,63,43,30.11,29.50,5,0,17,0.16
2013-11-18,50.3,35.5,23.8,17.0,11.8,6.0,56,39,22,30.21,29.99,5,0,10,0.00
2013-11-19,46.2,35.9,28.3,21.0,17.1,12.0,66,47,33,29.99,29.64,13,1,17,0.00
2013-11-20,44.4,35.2,29.2,27.0,20.1,17.0,85,56,34,29.74,29.64,5,0,13,0.00
2013-11-21,30.3,25.6,13.1,27.0,22.4,9.0,91,87,80,30.32,29.72,11,1,15,0.06
2013-11-22,22.1,17.4,11.5,18.0,13.6,8.0,88,85,78,30.65,30.32,0,0,3,0.00
2013-11-23,25.0,20.4,17.2,18.0,16.2,14.0,89,84,71,30.64,30.39,0,0,3,0.00
2013-11-24,31.8,23.6,12.9,26.0,20.0,9.0,91,86,72,30.38,29.96,5,0,11,0.00
2013-11-25,30.0,23.0,16.9,23.0,14.5,9.0,87,71,54,30.36,29.99,8,1,21,0.00
2013-11-26,33.5,23.5,15.3,19.0,13.8,10.0,85,68,47,30.50,30.36,4,0,7,0.01
2013-11-27,40.1,25.9,12.7,20.0,13.4,7.0,81,61,35,30.38,30.21,2,0,6,0.17
2013-11-28,33.7,25.4,17.6,16.0,13.1,10.0,79,61,45,30.27,30.18,1,0,3,0.04
2013-11-29,41.2,30.7,18.6,16.0,12.7,10.0,69,48,32,30.27,30.17,3,0,11,0.00
2013-11-30,40.5,30.3,23.3,13.0,9.5,6.0,56,43,30,30.22,30.13,2,0,12,0.00
2013-12-1,41.1,32.1,22.5,20.0,11.2,5.0,58,43,30,30.17,29.92,10,2,27,0.00
2013-12-2,43.3,34.8,30.7,20.0,17.4,14.0,60,50,35,29.91,29.54,12,2,24,0.00
2013-12-3,32.9,30.2,27.0,27.0,20.6,13.0,88,69,45,29.53,29.25,10,2,22,0.05
2013-12-4,27.8,16.2,2.4,25.0,12.7,-3.0,91,85,76,29.86,29.18,11,1,19,0.00
2013-12-5,12.6,2.2,-11.2,6.0,-3.9,-17.0,79,76,71,30.19,29.86,3,0,6,0.03
2013-12-6,12.8,4.3,-3.6,0.0,-4.8,-9.0,79,67,54,30.35,30.17,3,0,12,0.00
2013-12-7,17.9,11.0,1.0,9.0,2.9,-7.0,85,70,57,30.34,29.78,10,1,12,0.00
2013-12-8,14.4,8.3,-3.6,9.0,-2.6,-14.0,87,62,43,30.09,29.69,8,1,20,0.00
2013-12-9,11.1,3.5,-5.4,-6.0,-11.9,-16.0,64,50,33,30.60,30.09,6,0,23,0.00
2013-12-10,30.3,17.8,5.0,9.0,2.1,-8.0,69,51,39,30.59,30.26,5,0,12,0.01
2013-12-11,31.9,22.3,11.4,7.0,3.4,-2.0,70,46,33,30.49,30.30,4,0,11,0.01
2013-12-12,41.0,27.2,11.9,9.0,1.1,-6.0,46,33,23,30.48,30.03,8,0,11,0.04
2013-12-13,35.5,25.8,14.2,10.0,5.9,-1.0,69,45,26,30.10,29.79,2,0,11,0.02
2013-12-14,29.1,19.2,9.9,17.0,5.7,2.0,73,57,40,30.47,30.10,9,0,23,0.00
2013-12-15,43.0,30.7,22.9,17.0,12.5,8.0,61,48,31,30.41,30.19,7,1,25,0.00
2013-12-16,43.5,35.4,28.2,17.0,11.3,4.0,53,38,26,30.22,30.14,9,2,22,0.00
2013-12-17,45.3,35.9,27.4,14.0,9.7,5.0,43,34,26,30.30,30.09,10,0,18,0.00
2013-12-18,48.7,38.5,28.1,14.0,9.2,7.0,45,31,20,30.09,29.60,7,0,14,0.00
2013-12-19,41.3,33.2,23.6,20.0,15.8,13.0,75,50,33,29.60,29.40,5,1,15,0.00
2013-12-20,31.8,25.6,18.5,21.0,15.6,8.0,76,66,57,29.60,29.49,10,1,17,0.00
2013-12-21,27.0,18.3,9.4,15.0,7.6,2.0,85,64,40,29.90,29.49,2,0,7,0.00
2013-12-22,26.3,16.0,7.5,5.0,1.1,-3.0,74,53,37,30.30,29.91,7,1,14,0.00
2013-12-23,32.0,23.5,15.6,15.0,9.7,5.0,67,56,40,30.39,30.29,15,2,29,0.00
2013-12-24,35.9,24.0,9.1,21.0,11.6,-4.0,78,60,46,30.31,30.03,9,2,19,0.00
2013-12-25,32.1,19.7,5.6,5.0,-1.9,-12.0,57,39,25,30.54,30.31,2,0,8,0.00
2013-12-26,37.1,26.8,15.8,12.0,6.5,-6.0,67,44,27,30.51,30.30,7,0,10,0.00
2013-12-27,42.4,27.6,15.2,19.0,13.9,8.0,77,58,36,30.42,30.17,3,0,5,0.00
2013-12-28,41.1,29.1,18.3,20.0,16.2,13.0,87,61,38,30.16,29.82,6,1,11,0.00
2013-12-29,24.7,16.2,8.8,15.0,8.4,4.0,88,72,48,30.23,29.94,4,0,13,0.10
2013-12-30,33.8,25.5,19.8,12.0,7.3,1.0,62,47,34,30.34,30.16,5,1,32,0.04
2013-12-31,37.7,29.4,22.9,18.0,13.1,7.0,70,51,43,30.21,29.94,11,2,22,0.01
2014-1-1,29.8,23.9,16.5,21.0,9.6,-1.0,84,56,37,30.28,29.85,24,2,27,0.00
2014-1-2,41.5,29.2,18.4,13.0,4.2,-7.0,57,36,23,30.35,30.06,5,1,19,0.00